Time;durP1;ratioP1;P1;durP2;ratioP2;P2;SDS_P1;SDS_P2;PMS_P1;PMS_P2;Temp;Humidity;BMP_temperature;BMP_pressure;BME280_temperature;BME280_humidity;BME280_pressure;Samples;Min_cycle;Max_cycle;Signal;HPM_P1;HPM_P2
2022/08/26 00:02:14;;;;;;;18.65;9.27;;;;;;;24.11;79.76;100829.31;5029608;28;20052;-77
2022/08/26 00:04:44;;;;;;;18.67;9.45;;;;;;;24.12;81.24;100833.69;5036139;28;20062;-75
2022/08/26 00:07:11;;;;;;;16.27;9.35;;;;;;;24.04;80.63;100830.47;5046959;28;20067;-74
2022/08/26 00:09:38;;;;;;;16.08;8.38;;;;;;;24.03;81.77;100842.28;5040111;28;20124;-75
2022/08/26 00:12:06;;;;;;;14.55;8.38;;;;;;;23.99;82.12;100838.88;5036060;28;20054;-78
2022/08/26 00:14:34;;;;;;;19.58;9.35;;;;;;;23.93;82.25;100830.25;5040936;28;20048;-78
2022/08/26 00:17:00;;;;;;;20.40;9.63;;;;;;;23.93;82.86;100835.91;5040881;28;20057;-78
2022/08/26 00:19:27;;;;;;;18.50;9.52;;;;;;;23.90;81.43;100839.72;5041741;28;20055;-76
2022/08/26 00:21:54;;;;;;;16.63;8.82;;;;;;;23.85;82.15;100834.72;5030196;28;20067;-78
2022/08/26 00:24:21;;;;;;;18.30;9.70;;;;;;;23.81;82.92;100834.13;5043537;28;20719;-75
2022/08/26 00:26:49;;;;;;;17.50;8.93;;;;;;;23.78;83.45;100840.75;5036814;28;20063;-78
2022/08/26 00:29:17;;;;;;;18.25;9.63;;;;;;;23.73;84.09;100846.31;5031345;28;20933;-75
2022/08/26 00:31:43;;;;;;;18.98;10.23;;;;;;;23.68;82.35;100836.44;5034734;28;20093;-75
2022/08/26 00:34:11;;;;;;;18.60;9.63;;;;;;;23.74;83.78;100845.81;5034868;28;20165;-74
2022/08/26 00:36:39;;;;;;;20.85;10.05;;;;;;;23.66;83.38;100846.69;5036449;28;20132;-76
2022/08/26 00:39:07;;;;;;;20.20;9.68;;;;;;;23.65;83.09;100850.78;5038916;28;20049;-78
2022/08/26 00:41:34;;;;;;;18.77;9.50;;;;;;;23.52;86.62;100872.84;5037355;28;20053;-76
2022/08/26 00:44:01;;;;;;;18.08;9.70;;;;;;;23.46;86.19;100864.25;5045704;28;20071;-76
2022/08/26 00:46:33;;;;;;;19.48;9.88;;;;;;;23.38;86.71;100860.22;5058903;28;20049;-75
2022/08/26 00:49:10;;;;;;;18.02;10.10;;;;;;;23.35;87.93;100863.25;5053373;28;20049;-77
2022/08/26 00:51:46;;;;;;;19.25;10.70;;;;;;;23.36;87.72;100864.78;5062297;28;20057;-73
2022/08/26 00:54:15;;;;;;;20.73;10.73;;;;;;;23.43;85.53;100864.44;5063689;28;20050;-75
2022/08/26 00:57:20;;;;;;;19.08;10.48;;;;;;;23.40;87.89;100865.38;5067846;28;20135;-74
2022/08/26 00:59:53;;;;;;;20.98;9.88;;;;;;;23.47;86.02;100867.84;5040944;28;20044;-74
2022/08/26 01:02:20;;;;;;;24.05;9.60;;;;;;;23.52;85.28;100867.19;5042010;28;20588;-74
2022/08/26 01:04:53;;;;;;;22.27;10.07;;;;;;;23.59;86.17;100867.59;5039433;28;20512;-75
2022/08/26 01:07:26;;;;;;;18.60;9.98;;;;;;;23.60;85.60;100863.53;5037458;28;20057;-74
2022/08/26 01:09:58;;;;;;;20.48;10.38;;;;;;;23.51;85.25;100865.63;5042359;28;20041;-73
2022/08/26 01:12:27;;;;;;;17.73;9.60;;;;;;;23.48;87.35;100867.38;5038227;28;20057;-74
2022/08/26 01:14:54;;;;;;;16.40;9.45;;;;;;;23.40;87.83;100865.38;5041648;28;21008;-75
2022/08/26 01:17:21;;;;;;;17.67;10.23;;;;;;;23.31;87.92;100863.41;5041478;28;20067;-75
2022/08/26 01:20:00;;;;;;;19.08;10.50;;;;;;;23.29;88.78;100867.97;5048208;28;20147;-73
2022/08/26 01:22:40;;;;;;;18.00;10.07;;;;;;;23.31;88.04;100863.41;5042663;28;20064;-76
2022/08/26 01:25:10;;;;;;;17.50;9.32;;;;;;;23.32;88.93;100858.56;5039706;28;20049;-75
2022/08/26 01:27:36;;;;;;;22.35;10.75;;;;;;;23.31;87.43;100860.59;5036698;28;20050;-72
2022/08/26 01:30:05;;;;;;;18.80;10.77;;;;;;;23.28;88.21;100858.72;5040702;28;20037;-75
2022/08/26 01:32:32;;;;;;;17.15;10.10;;;;;;;23.29;88.80;100856.69;5061194;28;20143;-76
2022/08/26 01:34:59;;;;;;;18.58;10.77;;;;;;;23.24;88.40;100854.50;5061114;28;20402;-76
2022/08/26 01:37:33;;;;;;;20.58;10.27;;;;;;;23.20;88.23;100857.50;5062882;28;20739;-75
2022/08/26 01:40:00;;;;;;;19.38;10.40;;;;;;;23.19;88.07;100866.44;5065796;28;20055;-75
2022/08/26 01:42:27;;;;;;;20.08;10.35;;;;;;;23.17;89.35;100872.56;5061257;28;20091;-73
2022/08/26 01:45:03;;;;;;;24.67;10.40;;;;;;;23.09;88.63;100867.78;5055302;28;20154;-73
2022/08/26 01:47:32;;;;;;;20.20;10.55;;;;;;;22.87;91.48;100872.91;5063445;28;20147;-75
2022/08/26 01:50:01;;;;;;;22.73;12.32;;;;;;;22.72;92.48;100878.47;5067644;28;20057;-76
2022/08/26 01:52:32;;;;;;;22.92;12.63;;;;;;;22.71;91.94;100883.31;5063266;28;20373;-73
2022/08/26 01:54:59;;;;;;;21.17;11.95;;;;;;;22.70;92.73;100883.78;5060150;28;20048;-74
2022/08/26 01:57:26;;;;;;;23.13;12.98;;;;;;;22.53;94.72;100897.50;5062692;28;20055;-77
2022/08/26 01:59:59;;;;;;;24.48;13.57;;;;;;;22.46;95.58;100894.97;5058179;28;20591;-73
2022/08/26 02:02:26;;;;;;;22.90;13.43;;;;;;;22.42;94.85;100891.56;5052466;28;20064;-75
2022/08/26 02:04:58;;;;;;;27.05;13.00;;;;;;;22.36;94.53;100889.81;5062728;28;20056;-73
2022/08/26 02:07:26;;;;;;;21.75;12.55;;;;;;;22.30;96.84;100900.97;5062037;28;20587;-75
2022/08/26 02:09:53;;;;;;;23.80;12.70;;;;;;;22.13;100.00;100919.47;5057814;28;20562;-73
2022/08/26 02:12:20;;;;;;;24.95;14.38;;;;;;;22.11;99.85;100918.38;5059721;28;20402;-73
2022/08/26 02:14:52;;;;;;;24.23;14.68;;;;;;;22.04;100.00;100924.34;5057330;28;20381;-74
2022/08/26 02:17:22;;;;;;;28.38;18.65;;;;;;;22.09;100.00;100920.88;5060039;28;20721;-74
2022/08/26 02:19:49;;;;;;;33.00;21.42;;;;;;;22.20;100.00;100926.81;5065579;28;20041;-74
2022/08/26 02:22:21;;;;;;;31.98;21.38;;;;;;;22.23;100.00;100928.69;5064005;28;20052;-74
2022/08/26 02:24:50;;;;;;;32.90;20.10;;;;;;;22.25;100.00;100920.56;5058537;28;20107;-73
2022/08/26 02:27:20;;;;;;;32.88;21.67;;;;;;;22.27;100.00;100926.47;5057439;28;20048;-75
2022/08/26 02:29:53;;;;;;;31.60;19.85;;;;;;;22.23;100.00;100925.88;5060501;28;20072;-75
2022/08/26 02:32:20;;;;;;;36.15;23.88;;;;;;;22.25;100.00;100926.19;5060425;28;20056;-75
2022/08/26 02:34:48;;;;;;;35.58;23.77;;;;;;;22.24;100.00;100931.03;5059261;28;20135;-72
2022/08/26 02:37:15;;;;;;;40.08;28.67;;;;;;;22.29;100.00;100921.16;5062191;28;20143;-74
2022/08/26 02:39:43;;;;;;;37.88;24.23;;;;;;;22.27;100.00;100929.31;5062645;28;20045;-75
2022/08/26 02:42:10;;;;;;;42.00;29.40;;;;;;;22.18;100.00;100930.09;5052097;28;20142;-73
2022/08/26 02:44:37;;;;;;;41.10;29.95;;;;;;;22.12;100.00;100934.81;5057101;28;20540;-74
2022/08/26 02:47:05;;;;;;;45.47;28.33;;;;;;;22.03;100.00;100928.38;5063092;28;20497;-75
2022/08/26 02:49:33;;;;;;;43.03;29.70;;;;;;;21.99;100.00;100934.19;5064045;28;20061;-74
2022/08/26 02:52:00;;;;;;;42.22;30.77;;;;;;;22.11;100.00;100932.47;5055891;28;20130;-74
2022/08/26 02:54:27;;;;;;;43.92;32.92;;;;;;;22.12;100.00;100937.63;5066393;28;20179;-74
2022/08/26 02:56:55;;;;;;;50.05;34.97;;;;;;;22.09;100.00;100929.34;5053980;28;20053;-76
2022/08/26 02:59:22;;;;;;;50.25;33.55;;;;;;;22.05;100.00;100929.50;5056083;28;20057;-74
2022/08/26 03:01:50;;;;;;;52.00;38.22;;;;;;;22.08;100.00;100924.97;5058103;28;20052;-75
2022/08/26 03:04:17;;;;;;;52.00;39.08;;;;;;;22.16;100.00;100929.81;5067200;28;20044;-75
2022/08/26 03:06:45;;;;;;;49.90;35.58;;;;;;;22.18;100.00;100924.47;5059042;28;20529;-76
2022/08/26 03:09:18;;;;;;;49.38;36.72;;;;;;;22.09;100.00;100932.16;5055049;28;20051;-71
2022/08/26 03:11:46;;;;;;;49.25;37.97;;;;;;;22.04;100.00;100930.75;5057670;28;20055;-74
2022/08/26 03:14:13;;;;;;;52.13;38.13;;;;;;;21.96;100.00;100929.50;5057927;28;20131;-72
2022/08/26 03:16:40;;;;;;;54.80;39.03;;;;;;;21.86;100.00;100927.94;5064895;28;20055;-74
2022/08/26 03:19:08;;;;;;;56.38;40.38;;;;;;;21.75;100.00;100924.81;5064995;28;20128;-74
2022/08/26 03:21:36;;;;;;;54.53;38.63;;;;;;;21.69;100.00;100931.50;5061803;28;20055;-74
2022/08/26 03:24:03;;;;;;;53.63;40.17;;;;;;;21.61;100.00;100930.25;5059513;28;20059;-72
2022/08/26 03:26:30;;;;;;;59.97;40.78;;;;;;;21.47;100.00;100928.81;5058640;28;20055;-74
2022/08/26 03:31:42;;;;;;;55.08;39.53;;;;;;;21.36;100.00;100936.91;5060570;28;20064;-73
2022/08/26 03:34:08;;;;;;;65.45;45.92;;;;;;;21.37;100.00;100935.69;5053072;28;20052;-73
2022/08/26 03:36:37;;;;;;;71.82;49.50;;;;;;;21.47;100.00;100936.47;5058120;28;20098;-74
2022/08/26 03:39:05;;;;;;;60.75;46.17;;;;;;;21.51;100.00;100925.84;5065261;28;20105;-74
2022/08/26 03:41:35;;;;;;;64.45;50.45;;;;;;;21.51;100.00;100940.72;5062650;28;20066;-75
2022/08/26 03:44:04;;;;;;;65.93;51.20;;;;;;;21.53;100.00;100934.63;5065622;28;20459;-74
2022/08/26 03:46:32;;;;;;;73.63;53.83;;;;;;;21.57;100.00;100938.81;5052606;28;20562;-74
2022/08/26 03:49:01;;;;;;;73.20;55.03;;;;;;;21.63;100.00;100944.66;5063876;28;20179;-74
2022/08/26 03:51:28;;;;;;;75.93;58.28;;;;;;;21.57;100.00;100938.06;5063987;28;20048;-74
2022/08/26 03:53:57;;;;;;;74.43;56.28;;;;;;;21.53;100.00;100941.00;5061869;28;20052;-75
2022/08/26 03:56:24;;;;;;;79.35;56.95;;;;;;;21.44;100.00;100934.59;5064136;28;20045;-73
2022/08/26 03:58:52;;;;;;;75.47;55.75;;;;;;;21.48;100.00;100943.66;5062429;28;20036;-74
2022/08/26 04:01:18;;;;;;;75.07;57.72;;;;;;;21.49;100.00;100945.22;5058903;28;20045;-74
2022/08/26 04:03:57;;;;;;;75.63;58.45;;;;;;;21.48;100.00;100938.03;5060706;28;20094;-76
2022/08/26 04:06:35;;;;;;;83.53;59.15;;;;;;;21.50;100.00;100952.44;5059956;28;20045;-74
2022/08/26 04:09:09;;;;;;;80.75;59.50;;;;;;;21.51;100.00;100945.56;5058166;28;20086;-73
2022/08/26 04:11:42;;;;;;;79.93;60.90;;;;;;;21.47;100.00;100951.34;5060594;28;20040;-76
2022/08/26 04:14:13;;;;;;;82.03;61.10;;;;;;;21.51;100.00;100954.78;5051710;28;20461;-74
2022/08/26 04:16:43;;;;;;;85.35;60.85;;;;;;;21.48;100.00;100952.09;5050195;28;20326;-73
2022/08/26 04:19:11;;;;;;;87.35;61.15;;;;;;;21.49;100.00;100950.84;5061698;28;20041;-74
2022/08/26 04:21:39;;;;;;;88.80;65.22;;;;;;;21.51;100.00;100949.16;5051020;28;20045;-74
2022/08/26 04:24:09;;;;;;;90.50;67.43;;;;;;;21.59;100.00;100956.03;5056079;28;20396;-76
2022/08/26 04:26:38;;;;;;;89.50;61.28;;;;;;;21.68;100.00;100952.47;5050639;28;20056;-76
2022/08/26 04:29:17;;;;;;;87.65;62.58;;;;;;;21.80;100.00;100957.97;5059435;28;20094;-74
2022/08/26 04:31:44;;;;;;;95.40;67.85;;;;;;;21.90;100.00;100964.41;5064138;28;20048;-75
2022/08/26 04:34:12;;;;;;;93.30;67.00;;;;;;;21.88;100.00;100959.25;5055871;28;20141;-74
2022/08/26 04:36:39;;;;;;;93.47;66.38;;;;;;;21.89;100.00;100962.81;5057979;28;20049;-74
2022/08/26 04:39:10;;;;;;;88.68;61.70;;;;;;;21.89;100.00;100955.16;5061468;28;20132;-74
2022/08/26 04:41:38;;;;;;;89.88;66.13;;;;;;;21.89;100.00;100966.44;5051640;28;20516;-72
2022/08/26 04:44:05;;;;;;;92.57;66.72;;;;;;;21.91;100.00;100963.16;5049415;28;20059;-73
2022/08/26 04:46:31;;;;;;;89.00;64.03;;;;;;;21.91;100.00;100965.97;5057340;28;20049;-73
2022/08/26 04:48:58;;;;;;;96.03;67.15;;;;;;;21.95;100.00;100978.66;5058430;28;20506;-75
2022/08/26 04:51:28;;;;;;;91.68;66.32;;;;;;;22.00;100.00;100968.81;5062116;28;20052;-74
2022/08/26 04:53:56;;;;;;;91.00;63.17;;;;;;;22.04;100.00;100977.88;5059510;28;20056;-75
2022/08/26 04:56:32;;;;;;;87.03;61.03;;;;;;;22.05;100.00;100979.44;5061698;28;20131;-74
2022/08/26 04:59:00;;;;;;;86.38;58.17;;;;;;;22.04;100.00;100983.50;5060840;28;20476;-73
2022/08/26 05:01:28;;;;;;;91.53;61.78;;;;;;;22.05;100.00;100990.72;5059625;28;20080;-73
2022/08/26 05:03:55;;;;;;;88.97;61.63;;;;;;;22.03;100.00;100982.72;5051092;28;20060;-75
2022/08/26 05:06:24;;;;;;;84.25;61.30;;;;;;;22.03;100.00;100979.91;5055293;28;20049;-74
2022/08/26 05:08:51;;;;;;;79.32;54.42;;;;;;;22.00;100.00;100982.88;5056287;28;20044;-74
2022/08/26 05:11:19;;;;;;;86.97;60.92;;;;;;;22.02;100.00;100983.97;5061223;28;20075;-70
2022/08/26 05:13:47;;;;;;;82.22;58.45;;;;;;;22.08;100.00;100984.13;5059642;28;20413;-75
2022/08/26 05:16:15;;;;;;;88.43;59.35;;;;;;;22.13;100.00;100983.50;5059096;28;20846;-73
2022/08/26 05:18:43;;;;;;;84.38;59.30;;;;;;;22.19;100.00;100987.25;5055599;28;20063;-73
2022/08/26 05:21:20;;;;;;;83.15;56.90;;;;;;;22.24;100.00;100989.47;5047056;28;20693;-74
2022/08/26 05:23:50;;;;;;;;;;;;;;;22.31;100.00;100992.72;5050921;28;20133;-73
2022/08/26 05:26:18;;;;;;;72.10;49.15;;;;;;;22.24;100.00;100992.28;5052587;28;20003;-74
2022/08/26 05:28:48;;;;;;;77.90;56.45;;;;;;;22.28;100.00;100990.09;5057749;28;20111;-72
2022/08/26 05:31:18;;;;;;;77.53;54.75;;;;;;;22.31;100.00;100989.13;5054897;28;20143;-75
2022/08/26 05:33:45;;;;;;;74.13;49.33;;;;;;;22.35;100.00;100990.53;5062475;28;20552;-74
2022/08/26 05:36:16;;;;;;;76.70;53.83;;;;;;;22.39;100.00;100996.81;5050767;28;20057;-72
2022/08/26 05:38:43;;;;;;;77.22;53.70;;;;;;;22.45;100.00;100989.25;5053819;28;20045;-73
2022/08/26 05:41:20;;;;;;;74.22;52.65;;;;;;;22.50;100.00;100993.50;5062727;28;20041;-72
2022/08/26 05:43:46;;;;;;;71.35;47.95;;;;;;;22.49;100.00;101006.84;5056301;28;20068;-74
2022/08/26 05:46:14;;;;;;;73.00;46.33;;;;;;;22.41;100.00;101001.97;5056714;28;20147;-73
2022/08/26 05:48:41;;;;;;;65.10;43.33;;;;;;;22.44;100.00;101003.81;5060608;28;20040;-73
2022/08/26 05:51:10;;;;;;;70.15;50.08;;;;;;;22.51;100.00;101004.31;5059639;28;20049;-75
2022/08/26 05:53:39;;;;;;;72.53;49.95;;;;;;;22.60;100.00;101015.59;5061669;28;20049;-73
2022/08/26 05:56:10;;;;;;;71.72;50.13;;;;;;;22.67;100.00;101004.00;5067888;28;20311;-72
2022/08/26 05:58:39;;;;;;;70.30;46.92;;;;;;;22.75;100.00;101001.63;5064099;28;20068;-74
2022/08/26 06:01:19;;;;;;;66.57;47.53;;;;;;;22.74;100.00;101011.34;5063172;28;20044;-74
2022/08/26 06:03:50;;;;;;;70.68;45.22;;;;;;;22.65;100.00;101011.38;5060367;28;20568;-74
2022/08/26 06:06:32;;;;;;;70.85;47.25;;;;;;;22.66;100.00;101012.91;5061464;28;20044;-73
2022/08/26 06:09:03;;;;;;;67.15;44.65;;;;;;;22.68;100.00;101014.00;5068728;28;20481;-75
2022/08/26 06:11:31;;;;;;;62.97;42.65;;;;;;;22.81;100.00;101019.47;5056233;28;20059;-73
2022/08/26 06:14:01;;;;;;;61.55;41.83;;;;;;;22.85;100.00;101005.19;5067497;28;20052;-73
2022/08/26 06:16:31;;;;;;;67.85;45.15;;;;;;;22.85;100.00;101006.00;5056311;28;20040;-72
2022/08/26 06:19:01;;;;;;;59.95;40.40;;;;;;;22.66;100.00;101010.91;5065941;28;20443;-75
2022/08/26 06:21:31;;;;;;;63.33;44.78;;;;;;;22.84;100.00;101007.22;5050420;28;20132;-75
2022/08/26 06:26:55;;;;;;;67.88;44.25;;;;;;;22.99;100.00;101013.00;5055461;28;20472;-71
2022/08/26 06:29:24;;;;;;;63.35;40.88;;;;;;;22.98;100.00;101009.38;5053523;28;20219;-72
2022/08/26 06:31:53;;;;;;;60.78;43.30;;;;;;;23.07;100.00;101017.03;5054276;28;20671;-74
2022/08/26 06:34:22;;;;;;;60.25;40.13;;;;;;;23.18;100.00;101012.44;5059663;28;20106;-74
2022/08/26 06:36:57;;;;;;;59.53;41.70;;;;;;;23.17;100.00;101022.19;5063585;28;20055;-73
2022/08/26 06:39:24;;;;;;;55.15;35.40;;;;;;;23.23;100.00;101022.34;5063184;28;20052;-74
2022/08/26 06:41:50;;;;;;;56.83;39.80;;;;;;;23.26;100.00;101027.84;5064672;28;20052;-74
2022/08/26 06:44:18;;;;;;;62.53;39.63;;;;;;;23.31;100.00;101029.19;5056269;28;20152;-74
2022/08/26 06:46:44;;;;;;;59.15;40.22;;;;;;;23.40;100.00;101027.13;5063769;28;20060;-74
2022/08/26 06:49:15;;;;;;;54.85;37.97;;;;;;;23.48;100.00;101030.41;5054457;28;20048;-77
2022/08/26 06:51:42;;;;;;;56.75;37.03;;;;;;;23.54;100.00;101028.47;5056329;28;20139;-77
2022/08/26 06:54:10;;;;;;;50.25;36.70;;;;;;;23.60;100.00;101026.56;5057288;28;20142;-76
2022/08/26 06:56:40;;;;;;;54.08;38.78;;;;;;;23.67;100.00;101023.38;5063064;28;20078;-75
2022/08/26 06:59:11;;;;;;;55.90;37.17;;;;;;;23.70;100.00;101026.03;5057769;28;20592;-73
2022/08/26 07:01:44;;;;;;;52.10;35.72;;;;;;;23.70;100.00;101026.03;5056319;28;20049;-84
2022/08/26 07:04:15;;;;;;;57.67;36.17;;;;;;;23.69;100.00;101030.09;5070896;28;20127;-80
2022/08/26 07:06:49;;;;;;;54.33;36.65;;;;;;;23.80;100.00;101032.41;5071423;28;20585;-79
2022/08/26 07:09:23;;;;;;;51.92;35.58;;;;;;;23.89;100.00;101038.00;5067229;28;20465;-80
2022/08/26 07:11:51;;;;;;;58.72;37.30;;;;;;;23.89;100.00;101033.13;5061061;28;20087;-81
2022/08/26 07:14:18;;;;;;;49.00;34.38;;;;;;;23.92;100.00;101034.19;5058523;28;20144;-80
2022/08/26 07:16:48;;;;;;;48.58;32.83;;;;;;;23.92;100.00;101037.00;5061242;28;20072;-79
2022/08/26 07:19:17;;;;;;;51.40;35.60;;;;;;;23.98;100.00;101035.13;5061256;28;20062;-76
2022/08/26 07:21:56;;;;;;;43.00;31.48;;;;;;;24.06;100.00;101039.94;5058041;28;20133;-74
2022/08/26 07:24:22;;;;;;;47.35;32.55;;;;;;;24.12;100.00;101042.88;5061063;28;20067;-78
2022/08/26 07:26:58;;;;;;;44.22;30.33;;;;;;;24.19;100.00;101042.50;5062703;28;20045;-73
2022/08/26 07:29:24;;;;;;;43.03;31.02;;;;;;;24.15;100.00;101045.53;5063424;28;20155;-73
2022/08/26 07:31:51;;;;;;;42.85;30.88;;;;;;;24.26;100.00;101040.09;5060252;28;20059;-74
2022/08/26 07:34:17;;;;;;;44.45;30.65;;;;;;;24.33;100.00;101051.03;5063485;28;20505;-73
2022/08/26 07:36:44;;;;;;;39.58;29.33;;;;;;;24.39;100.00;101051.94;5060082;28;20147;-72
2022/08/26 07:39:11;;;;;;;41.70;28.10;;;;;;;24.44;100.00;101048.41;5062609;28;20429;-77
2022/08/26 07:41:38;;;;;;;40.00;27.83;;;;;;;24.48;100.00;101054.69;5057669;28;20052;-75
2022/08/26 07:44:04;;;;;;;43.38;29.73;;;;;;;24.53;100.00;101056.03;5060134;28;20113;-76
2022/08/26 07:46:34;;;;;;;38.00;27.25;;;;;;;24.55;100.00;101054.31;5056779;28;20045;-77
2022/08/26 07:49:00;;;;;;;42.42;27.27;;;;;;;24.60;100.00;101053.63;5059905;28;20049;-79
2022/08/26 07:51:27;;;;;;;41.63;28.15;;;;;;;24.53;100.00;101056.03;5061002;28;20681;-76
2022/08/26 07:53:54;;;;;;;39.50;29.75;;;;;;;24.30;100.00;101068.97;5064443;28;20052;-78
2022/08/26 07:56:21;;;;;;;39.17;26.00;;;;;;;24.30;100.00;101068.19;5059777;28;20062;-77
2022/08/26 07:58:49;;;;;;;42.20;27.63;;;;;;;24.30;100.00;101068.97;5063751;28;20174;-73
2022/08/26 08:01:22;;;;;;;34.55;23.33;;;;;;;24.26;100.00;101074.03;5057342;28;20052;-76
2022/08/26 08:03:50;;;;;;;41.72;27.15;;;;;;;24.10;100.00;101077.28;5058425;28;20504;-77
2022/08/26 08:06:18;;;;;;;39.17;25.42;;;;;;;24.12;100.00;101071.94;5063311;28;20053;-74
2022/08/26 08:08:46;;;;;;;36.42;26.80;;;;;;;24.03;100.00;101069.16;5054163;28;20179;-74
2022/08/26 08:11:12;;;;;;;37.40;24.45;;;;;;;24.13;100.00;101079.16;5061531;28;20045;-73
2022/08/26 08:13:39;;;;;;;39.28;25.40;;;;;;;24.23;100.00;101079.88;5058248;28;20098;-74
2022/08/26 08:16:07;;;;;;;36.65;25.73;;;;;;;24.30;100.00;101080.28;5061693;28;20146;-75
2022/08/26 08:18:39;;;;;;;35.22;24.23;;;;;;;24.29;100.00;101086.41;5062986;28;20055;-76
2022/08/26 08:21:06;;;;;;;34.97;24.02;;;;;;;24.31;100.00;101083.91;5061242;28;20560;-75
2022/08/26 08:23:51;;;;;;;37.40;23.92;;;;;;;24.40;100.00;101095.91;5061292;28;20152;-73
2022/08/26 08:26:18;;;;;;;37.65;23.60;;;;;;;24.45;100.00;101083.94;5056958;28;20127;-73
2022/08/26 08:28:46;;;;;;;33.35;23.63;;;;;;;24.48;100.00;101087.84;5060152;28;20553;-74
2022/08/26 08:31:26;;;;;;;32.70;22.65;;;;;;;24.55;100.00;101095.94;5060171;28;20072;-77
2022/08/26 08:34:13;;;;;;;30.25;19.92;;;;;;;24.55;100.00;101096.75;5061620;28;20095;-74
2022/08/26 08:36:40;;;;;;;32.28;22.70;;;;;;;24.53;100.00;101096.44;5060547;28;20072;-78
2022/08/26 08:39:07;;;;;;;34.20;23.15;;;;;;;24.58;100.00;101100.66;5061233;28;20045;-75
2022/08/26 08:41:34;;;;;;;31.75;21.85;;;;;;;24.58;100.00;101107.09;5059093;28;20056;-78
2022/08/26 08:44:01;;;;;;;28.77;21.25;;;;;;;24.61;100.00;101100.44;5057266;28;20074;-76
2022/08/26 08:46:29;;;;;;;32.22;22.58;;;;;;;24.65;100.00;101103.13;5055789;28;20131;-72
2022/08/26 08:48:58;;;;;;;36.60;21.58;;;;;;;24.51;100.00;101103.84;5059392;28;20393;-82
2022/08/26 08:51:44;;;;;;;31.90;21.90;;;;;;;24.51;100.00;101098.97;5055622;28;20062;-83
2022/08/26 08:54:12;;;;;;;36.33;21.67;;;;;;;24.66;100.00;101107.50;5056208;28;20140;-75
2022/08/26 08:56:51;;;;;;;27.50;20.60;;;;;;;24.69;100.00;101098.84;5054951;28;20053;-74
2022/08/26 08:59:25;;;;;;;33.03;19.67;;;;;;;24.76;100.00;101109.00;5055819;28;20052;-76
2022/08/26 09:02:22;;;;;;;33.55;20.75;;;;;;;24.61;100.00;101097.63;5055141;28;20094;-75
2022/08/26 09:05:27;;;;;;;33.15;20.30;;;;;;;24.70;100.00;101108.09;5057341;28;20556;-77
2022/08/26 09:08:16;;;;;;;33.45;21.35;;;;;;;24.79;100.00;101110.84;5043290;28;20051;-73
2022/08/26 09:10:52;;;;;;;31.95;19.20;;;;;;;24.91;100.00;101106.97;5051930;28;20049;-75
2022/08/26 09:13:20;;;;;;;32.45;20.13;;;;;;;25.02;100.00;101101.53;5062219;28;20122;-76
2022/08/26 09:16:07;;;;;;;31.08;20.60;;;;;;;25.09;100.00;101103.97;5060089;28;20140;-78
2022/08/26 09:18:53;;;;;;;31.42;19.63;;;;;;;25.18;100.00;101110.28;5063328;28;20156;-76
2022/08/26 09:21:22;;;;;;;32.92;21.30;;;;;;;25.24;100.00;101106.78;5058653;28;20048;-80
2022/08/26 09:23:54;;;;;;;33.70;21.10;;;;;;;25.28;100.00;101111.00;5061554;28;20052;-77
2022/08/26 09:26:38;;;;;;;35.40;21.35;;;;;;;25.33;100.00;101118.03;5060930;28;20142;-78
2022/08/26 09:29:13;;;;;;;30.10;19.60;;;;;;;25.37;100.00;101104.47;5062134;28;20049;-76
2022/08/26 09:31:40;;;;;;;28.73;19.70;;;;;;;25.45;100.00;101114.13;5059401;28;20143;-77
2022/08/26 09:34:12;;;;;;;29.63;18.42;;;;;;;25.38;100.00;101109.66;5044164;28;20063;-80
2022/08/26 09:36:43;;;;;;;28.20;18.90;;;;;;;25.37;100.00;101112.97;5045821;28;20129;-80
2022/08/26 09:39:35;;;;;;;31.13;19.33;;;;;;;25.32;100.00;101108.78;5043231;28;20059;-78
2022/08/26 09:42:11;;;;;;;28.67;18.10;;;;;;;25.21;100.00;101107.78;5035973;28;20041;-75
2022/08/26 09:45:05;;;;;;;29.42;17.98;;;;;;;25.17;100.00;101112.84;5042513;28;20801;-75
2022/08/26 09:47:34;;;;;;;30.52;18.90;;;;;;;25.29;100.00;101106.09;5040471;28;20052;-76
2022/08/26 09:50:05;;;;;;;30.33;18.17;;;;;;;25.38;100.00;101112.50;5041584;28;20050;-76
2022/08/26 09:52:35;;;;;;;29.45;18.75;;;;;;;25.55;100.00;101115.59;5034866;28;20402;-75
2022/08/26 09:55:07;;;;;;;27.05;18.10;;;;;;;25.64;100.00;101107.75;5037301;28;20825;-77
2022/08/26 09:57:43;;;;;;;25.27;16.23;;;;;;;25.77;99.68;101104.56;5037954;28;20053;-75
2022/08/26 10:00:40;;;;;;;28.98;15.20;;;;;;;25.83;98.79;101106.25;5041275;28;20044;-76
2022/08/26 10:03:22;;;;;;;23.38;13.65;;;;;;;25.83;98.68;101106.25;5036925;28;20119;-75
2022/08/26 10:05:59;;;;;;;26.70;14.77;;;;;;;25.75;98.54;101109.97;5032919;28;20045;-77
2022/08/26 10:08:39;;;;;;;22.50;12.63;;;;;;;25.62;99.68;101106.69;5034715;28;20261;-75
2022/08/26 10:11:21;;;;;;;25.75;12.07;;;;;;;25.69;99.69;101097.78;5038264;28;20054;-75
2022/08/26 10:13:55;;;;;;;21.55;11.70;;;;;;;25.73;99.23;101099.13;5034648;28;20692;-76
2022/08/26 10:16:32;;;;;;;26.83;13.05;;;;;;;25.80;99.00;101097.94;5034865;28;20052;-76
2022/08/26 10:19:00;;;;;;;22.67;11.52;;;;;;;25.84;97.90;101099.28;5041128;28;20931;-76
2022/08/26 10:22:05;;;;;;;25.75;11.73;;;;;;;25.94;97.17;101097.09;5039919;28;20052;-74
2022/08/26 10:24:46;;;;;;;22.95;11.75;;;;;;;25.90;96.66;101093.69;5010430;28;20148;-79
2022/08/26 10:27:37;;;;;;;32.42;13.15;;;;;;;25.82;96.33;101095.41;5031308;28;20630;-75
2022/08/26 10:30:18;;;;;;;22.65;13.05;;;;;;;25.80;96.10;101095.88;5043078;28;20111;-76
2022/08/26 10:32:54;;;;;;;25.88;12.18;;;;;;;25.66;96.92;101104.41;5034988;28;20044;-77
2022/08/26 10:35:21;;;;;;;27.00;13.82;;;;;;;25.73;97.00;101095.50;5045225;28;20044;-77
2022/08/26 10:37:54;;;;;;;22.13;12.88;;;;;;;25.81;97.10;101097.44;5041379;28;20048;-82
2022/08/26 10:40:29;;;;;;;24.60;13.60;;;;;;;25.86;96.79;101095.97;5042087;28;20049;-77
2022/08/26 10:43:22;;;;;;;27.35;13.77;;;;;;;25.94;95.95;101091.44;5038247;28;20059;-77
2022/08/26 10:46:04;;;;;;;24.42;12.60;;;;;;;25.97;95.40;101096.16;5035430;28;20083;-81
2022/08/26 10:48:51;;;;;;;24.98;14.18;;;;;;;26.04;95.39;101092.88;5033170;28;20899;-78
2022/08/26 10:51:25;;;;;;;25.02;14.02;;;;;;;26.07;94.56;101094.75;5039259;28;20496;-76
2022/08/26 10:53:53;;;;;;;27.10;14.95;;;;;;;26.04;94.14;101096.50;5040879;28;20667;-79
2022/08/26 10:56:50;;;;;;;26.17;15.73;;;;;;;26.08;93.39;101096.31;5034977;28;20053;-81
2022/08/26 10:59:36;;;;;;;26.23;16.13;;;;;;;26.20;92.58;101093.13;5039025;28;20408;-78
2022/08/26 11:02:10;;;;;;;25.27;12.88;;;;;;;26.22;92.20;101089.78;5047431;28;20858;-74
2022/08/26 11:05:02;;;;;;;22.75;13.00;;;;;;;26.30;91.81;101090.91;5037384;28;20808;-74
2022/08/26 11:07:31;;;;;;;26.42;9.15;;;;;;;25.73;93.46;101089.84;5040665;28;20048;-75
2022/08/26 11:10:17;;;;;;;25.95;13.00;;;;;;;26.07;93.38;101089.06;5037558;28;20049;-75
2022/08/26 11:12:44;;;;;;;28.73;13.52;;;;;;;26.27;91.64;101095.53;5041524;28;20053;-80
2022/08/26 11:15:20;;;;;;;22.77;13.02;;;;;;;26.34;90.33;101094.31;5033971;28;20440;-76
2022/08/26 11:17:50;;;;;;;22.80;13.98;;;;;;;26.40;89.34;101095.19;5038132;28;20445;-77
2022/08/26 11:20:22;;;;;;;24.10;12.73;;;;;;;26.51;88.43;101093.25;5040529;28;20691;-74
2022/08/26 11:22:51;;;;;;;22.75;12.50;;;;;;;26.72;88.36;101102.53;5033730;28;20048;-75
2022/08/26 11:25:19;;;;;;;23.20;12.40;;;;;;;26.75;86.71;101098.69;5030512;28;20057;-81
2022/08/26 11:27:49;;;;;;;21.73;11.80;;;;;;;26.84;86.29;101102.19;5045612;28;20578;-78
2022/08/26 11:30:39;;;;;;;21.10;11.10;;;;;;;26.84;85.43;101095.72;5052106;28;20052;-81